Time;durP1;ratioP1;P1;durP2;ratioP2;P2;SDS_P1;SDS_P2;PMS_P1;PMS_P2;Temp;Humidity;BMP_temperature;BMP_pressure;BME280_temperature;BME280_humidity;BME280_pressure;Samples;Min_cycle;Max_cycle;Signal;HPM_P1;HPM_P2
2023/08/28 00:02:23;;;;;;;14.25;11.45;;;614.60;2432.00;;;;;;5028923;28;20048;-66
2023/08/28 00:04:49;;;;;;;16.98;11.35;;;614.50;2432.00;;;;;;5029066;28;20018;-65
2023/08/28 00:07:15;;;;;;;21.40;12.15;;;614.40;2432.00;;;;;;5028837;28;20464;-64
2023/08/28 00:09:40;;;;;;;15.63;12.48;;;614.40;2432.00;;;;;;5028778;28;20022;-64
2023/08/28 00:12:06;;;;;;;18.15;12.00;;;589.70;2432.00;;;;;;5028695;28;20083;-63
2023/08/28 00:14:32;;;;;;;13.65;11.93;;;589.70;2432.00;;;;;;5029080;28;20130;-67
2023/08/28 00:16:58;;;;;;;15.35;11.43;;;589.70;2432.00;;;;;;5028649;28;20468;-63
2023/08/28 00:19:24;;;;;;;14.45;11.63;;;589.50;2432.00;;;;;;5028599;28;20029;-63
2023/08/28 00:21:49;;;;;;;12.88;11.15;;;589.40;2432.00;;;;;;5028281;28;20070;-67
2023/08/28 00:24:15;;;;;;;15.95;10.57;;;589.50;2432.00;;;;;;5028113;28;20044;-63
2023/08/28 00:26:41;;;;;;;14.85;10.88;;;589.70;2432.00;;;;;;5028781;28;20025;-67
2023/08/28 00:29:06;;;;;;;15.70;12.38;;;589.70;2432.00;;;;;;5029353;28;20082;-64
2023/08/28 00:31:32;;;;;;;15.57;11.10;;;589.70;2432.00;;;;;;5032492;28;20021;-66
2023/08/28 00:33:58;;;;;;;13.25;10.50;;;589.70;2432.00;;;;;;5032340;28;20018;-64
2023/08/28 00:36:24;;;;;;;17.13;12.73;;;589.70;2432.00;;;;;;5032233;28;20036;-64
2023/08/28 00:38:49;;;;;;;16.13;11.82;;;589.50;2432.00;;;;;;5032135;28;20025;-67
2023/08/28 00:41:15;;;;;;;14.27;11.40;;;589.40;2432.00;;;;;;5032361;28;20042;-64
2023/08/28 00:43:41;;;;;;;17.88;11.88;;;589.30;2432.00;;;;;;5031724;28;20527;-64
2023/08/28 00:46:06;;;;;;;15.25;11.63;;;589.20;2432.00;;;;;;5031881;28;20040;-64
2023/08/28 00:48:33;;;;;;;15.18;10.77;;;589.20;2432.00;;;;;;5031857;28;20061;-66
2023/08/28 00:51:00;;;;;;;16.38;11.52;;;589.20;2432.00;;;;;;5032353;28;20116;-66
2023/08/28 00:53:26;;;;;;;13.40;10.65;;;589.20;2432.00;;;;;;5031418;28;20037;-64
2023/08/28 00:55:53;;;;;;;20.67;12.13;;;589.20;2432.00;;;;;;5032044;28;20022;-66
2023/08/28 00:58:19;;;;;;;12.73;11.38;;;589.20;2432.00;;;;;;5032059;28;20064;-64
2023/08/28 01:00:44;;;;;;;12.18;10.65;;;589.30;2432.00;;;;;;5031623;28;20017;-65
2023/08/28 01:03:10;;;;;;;13.18;11.00;;;589.30;2432.00;;;;;;5031499;28;20051;-65
2023/08/28 01:06:03;;;;;;;12.20;10.95;;;589.20;2432.00;;;;;;5031685;28;20025;-64
2023/08/28 01:08:40;;;;;;;12.32;10.45;;;589.10;2432.00;;;;;;5031685;28;20014;-64
2023/08/28 01:11:30;;;;;;;15.98;11.55;;;589.10;2432.00;;;;;;5031372;28;20029;-65
2023/08/28 01:14:21;;;;;;;13.80;10.25;;;589.10;2432.00;;;;;;5031120;28;20038;-65
2023/08/28 01:16:49;;;;;;;18.27;12.52;;;589.20;2432.00;;;;;;5048499;28;20151;-64
2023/08/28 01:19:35;;;;;;;11.77;10.57;;;589.20;2432.00;;;;;;5048839;28;20041;-64
2023/08/28 01:22:16;;;;;;;13.38;11.48;;;589.20;2432.00;;;;;;5049042;28;20051;-64
2023/08/28 01:25:09;;;;;;;15.40;11.70;;;589.00;2432.00;;;;;;5048873;28;20025;-66
2023/08/28 01:27:40;;;;;;;15.23;11.25;;;589.00;2432.00;;;;;;5048634;28;20033;-66
2023/08/28 01:30:08;;;;;;;17.55;11.70;;;588.90;2432.00;;;;;;5048664;28;20025;-65
2023/08/28 01:32:34;;;;;;;13.88;11.77;;;588.90;2432.00;;;;;;5048526;28;20017;-64
2023/08/28 01:35:02;;;;;;;17.45;11.95;;;588.80;2432.00;;;;;;5048968;28;20051;-67
2023/08/28 01:37:34;;;;;;;14.13;11.85;;;588.90;2432.00;;;;;;5048619;28;20017;-68
2023/08/28 01:40:05;;;;;;;17.33;11.10;;;588.80;2432.00;;;;;;5048834;28;20040;-67
2023/08/28 01:42:33;;;;;;;14.10;10.70;;;588.80;2432.00;;;;;;5048427;28;20204;-66
2023/08/28 01:45:00;;;;;;;16.67;11.90;;;588.80;2432.00;;;;;;5048544;28;20036;-68
2023/08/28 01:47:27;;;;;;;20.83;11.23;;;588.80;2432.00;;;;;;5042744;28;20040;-66
2023/08/28 01:49:55;;;;;;;12.23;10.93;;;564.10;2432.00;;;;;;5041107;28;20422;-69
2023/08/28 01:52:21;;;;;;;13.50;10.88;;;564.10;2432.00;;;;;;5048400;28;20040;-65
2023/08/28 01:54:47;;;;;;;13.20;9.80;;;564.00;2432.00;;;;;;5025840;28;20084;-64
2023/08/28 01:57:13;;;;;;;16.65;10.88;;;563.90;2432.00;;;;;;5030457;28;20488;-67
2023/08/28 01:59:38;;;;;;;14.13;11.00;;;563.70;2432.00;;;;;;5030425;28;20080;-65
2023/08/28 02:02:04;;;;;;;12.55;10.43;;;563.60;2432.00;;;;;;5029895;28;20096;-64
2023/08/28 02:04:30;;;;;;;16.40;11.65;;;563.60;2432.00;;;;;;5030618;28;20057;-68
2023/08/28 02:06:55;;;;;;;14.88;11.45;;;563.60;2432.00;;;;;;5030350;28;20033;-64
2023/08/28 02:09:21;;;;;;;16.58;11.93;;;563.60;2432.00;;;;;;5030736;28;20104;-67
2023/08/28 02:11:47;;;;;;;17.15;10.30;;;563.60;2432.00;;;;;;5030481;28;20070;-68
2023/08/28 02:14:12;;;;;;;16.77;11.65;;;563.60;2432.00;;;;;;5030437;28;20033;-67
2023/08/28 02:16:38;;;;;;;15.02;11.30;;;563.50;2432.00;;;;;;5028598;28;20029;-68
2023/08/28 02:19:05;;;;;;;13.18;11.43;;;563.50;2432.00;;;;;;5030068;28;20029;-63
2023/08/28 02:21:30;;;;;;;15.32;10.90;;;563.40;2432.00;;;;;;5030521;28;20013;-67
2023/08/28 02:23:56;;;;;;;18.20;10.93;;;563.40;2432.00;;;;;;5029999;28;20052;-63
2023/08/28 02:26:22;;;;;;;14.80;10.63;;;563.40;2432.00;;;;;;5029867;28;20009;-68
2023/08/28 02:28:48;;;;;;;17.88;12.07;;;563.40;2432.00;;;;;;5030669;28;20032;-68
2023/08/28 02:31:13;;;;;;;14.60;11.43;;;563.30;2432.00;;;;;;5030175;28;20505;-64
2023/08/28 02:33:39;;;;;;;17.05;12.35;;;563.50;2432.00;;;;;;5030074;28;20021;-63
2023/08/28 02:36:05;;;;;;;12.63;11.27;;;563.40;2432.00;;;;;;5029922;28;20057;-66
2023/08/28 02:38:30;;;;;;;16.98;12.55;;;563.40;2432.00;;;;;;5030077;28;20025;-63
2023/08/28 02:41:10;;;;;;;18.27;13.13;;;563.40;2432.00;;;;;;5029745;28;20076;-63
2023/08/28 02:43:38;;;;;;;19.35;10.95;;;563.50;2432.00;;;;;;5028949;28;20061;-63
2023/08/28 02:46:04;;;;;;;18.45;11.40;;;563.50;2432.00;;;;;;5017088;28;20030;-66
2023/08/28 02:48:29;;;;;;;18.15;11.88;;;563.40;2432.00;;;;;;5016329;28;20034;-66
2023/08/28 02:50:55;;;;;;;20.27;11.32;;;563.40;2432.00;;;;;;5029452;28;20030;-67
2023/08/28 02:53:21;;;;;;;17.00;10.95;;;563.50;2432.00;;;;;;5029069;28;20074;-66
2023/08/28 02:56:09;;;;;;;14.73;11.30;;;563.40;2432.00;;;;;;5029605;28;20040;-65
2023/08/28 02:58:35;;;;;;;17.48;11.80;;;563.40;2432.00;;;;;;5029233;28;20022;-67
2023/08/28 03:01:00;;;;;;;15.90;11.75;;;563.40;2432.00;;;;;;5029262;28;20033;-66
2023/08/28 03:03:26;;;;;;;12.82;11.32;;;563.30;2432.00;;;;;;5028923;28;20423;-66
2023/08/28 03:05:52;;;;;;;16.10;11.82;;;563.40;2432.00;;;;;;5029804;28;20410;-69
2023/08/28 03:08:17;;;;;;;14.45;11.38;;;563.40;2432.00;;;;;;5029142;28;20021;-68
2023/08/28 03:10:43;;;;;;;17.02;11.63;;;563.50;2432.00;;;;;;5029166;28;20464;-65
2023/08/28 03:13:09;;;;;;;14.90;11.48;;;563.40;2432.00;;;;;;5028949;28;20105;-68
2023/08/28 03:15:34;;;;;;;12.35;11.00;;;563.50;2432.00;;;;;;5029111;28;20021;-67
2023/08/28 03:18:00;;;;;;;14.48;11.93;;;563.50;2432.00;;;;;;5029045;28;20547;-64
2023/08/28 03:20:26;;;;;;;13.65;11.55;;;563.50;2432.00;;;;;;5028962;28;20029;-64
2023/08/28 03:22:52;;;;;;;14.40;10.95;;;563.50;2432.00;;;;;;5028802;28;20033;-65
2023/08/28 03:25:17;;;;;;;14.95;10.75;;;563.50;2432.00;;;;;;5029011;28;20120;-66
2023/08/28 03:27:43;;;;;;;14.57;11.93;;;563.50;2432.00;;;;;;5028674;28;20112;-65
2023/08/28 03:30:09;;;;;;;16.40;12.98;;;563.50;2432.00;;;;;;5028938;28;20391;-66
2023/08/28 03:32:35;;;;;;;19.20;13.40;;;563.50;2432.00;;;;;;5028583;28;20026;-66
2023/08/28 03:35:00;;;;;;;15.23;12.40;;;563.50;2432.00;;;;;;5029372;28;20430;-64
2023/08/28 03:37:26;;;;;;;15.88;12.77;;;563.50;2432.00;;;;;;5028737;28;20026;-63
2023/08/28 03:39:52;;;;;;;18.67;11.95;;;563.50;2432.00;;;;;;5029150;28;20028;-63
2023/08/28 03:42:17;;;;;;;13.60;11.85;;;563.50;2432.00;;;;;;5028226;28;20049;-63
2023/08/28 03:44:43;;;;;;;15.80;10.70;;;563.50;2432.00;;;;;;5028710;28;20040;-64
2023/08/28 03:47:09;;;;;;;17.55;10.82;;;563.50;2432.00;;;;;;5028361;28;20022;-68
2023/08/28 03:49:34;;;;;;;29.90;10.80;;;563.50;2432.00;;;;;;5027661;28;20029;-65
2023/08/28 03:52:00;;;;;;;15.05;10.50;;;563.60;2432.00;;;;;;5029192;28;20467;-67
2023/08/28 03:54:27;;;;;;;16.65;11.10;;;563.70;2432.00;;;;;;5029102;28;20040;-63
2023/08/28 03:56:53;;;;;;;16.08;12.23;;;563.70;2432.00;;;;;;5029157;28;20026;-63
2023/08/28 03:59:21;;;;;;;16.20;12.15;;;563.80;2432.00;;;;;;5029131;28;20021;-63
2023/08/28 04:01:48;;;;;;;17.30;11.65;;;563.80;2432.00;;;;;;5028412;28;20650;-67
2023/08/28 04:04:13;;;;;;;13.48;11.43;;;563.80;2432.00;;;;;;5029879;28;20061;-63
2023/08/28 04:06:39;;;;;;;21.38;11.23;;;563.80;2432.00;;;;;;5031497;28;20069;-67
2023/08/28 04:09:05;;;;;;;12.32;10.15;;;563.90;2432.00;;;;;;5033012;28;20033;-64
2023/08/28 04:11:31;;;;;;;14.80;11.30;;;564.00;2432.00;;;;;;5032609;28;20033;-64
2023/08/28 04:13:57;;;;;;;16.52;11.82;;;564.10;2432.00;;;;;;5031561;28;20038;-66
2023/08/28 04:16:23;;;;;;;16.02;11.57;;;564.10;2432.00;;;;;;5032263;28;20021;-64
2023/08/28 04:18:48;;;;;;;17.02;12.43;;;588.90;2432.00;;;;;;5032823;28;20022;-63
2023/08/28 04:21:14;;;;;;;18.58;11.43;;;589.00;2432.00;;;;;;5032304;28;20420;-63
2023/08/28 04:23:40;;;;;;;15.25;11.55;;;589.10;2432.00;;;;;;5032734;28;20037;-66
2023/08/28 04:26:06;;;;;;;15.85;11.38;;;589.10;2432.00;;;;;;5032163;28;20375;-64
2023/08/28 04:28:32;;;;;;;22.85;13.35;;;589.20;2432.00;;;;;;5032736;28;20025;-63
2023/08/28 04:30:57;;;;;;;17.38;12.90;;;589.30;2432.00;;;;;;5029513;28;20026;-67
2023/08/28 04:33:23;;;;;;;18.48;11.98;;;589.20;2432.00;;;;;;5021873;28;20029;-64
2023/08/28 04:35:49;;;;;;;18.13;12.52;;;589.50;2432.00;;;;;;5032291;28;20030;-66
2023/08/28 04:38:15;;;;;;;17.95;13.07;;;589.50;2432.00;;;;;;5032013;28;20028;-63
2023/08/28 04:40:40;;;;;;;18.05;13.55;;;589.70;2432.00;;;;;;5032331;28;20026;-64
2023/08/28 04:43:06;;;;;;;15.75;12.07;;;589.70;2432.00;;;;;;5031739;28;20065;-66
2023/08/28 04:45:32;;;;;;;14.70;11.82;;;589.70;2432.00;;;;;;5032175;28;20032;-65
2023/08/28 04:47:57;;;;;;;15.50;11.57;;;589.70;2432.00;;;;;;5032269;28;20041;-67
2023/08/28 04:50:23;;;;;;;15.93;12.20;;;614.70;2432.00;;;;;;5032002;28;20032;-64
2023/08/28 04:52:49;;;;;;;26.38;14.63;;;614.80;2432.00;;;;;;5032120;28;20017;-66
2023/08/28 04:55:15;;;;;;;20.10;11.52;;;614.80;2432.00;;;;;;5031920;28;20056;-68
2023/08/28 04:57:40;;;;;;;13.65;11.90;;;615.10;2432.00;;;;;;5032237;28;20013;-63
2023/08/28 05:00:07;;;;;;;14.70;12.02;;;614.90;2432.00;;;;;;5031514;28;20029;-63
2023/08/28 05:02:32;;;;;;;15.00;12.18;;;614.90;2432.00;;;;;;5031518;28;20515;-63
2023/08/28 05:04:58;;;;;;;16.48;11.65;;;615.10;2432.00;;;;;;5032143;28;20033;-65
2023/08/28 05:07:24;;;;;;;14.88;12.13;;;615.10;2432.00;;;;;;5031629;28;20462;-62
2023/08/28 05:09:49;;;;;;;17.65;11.45;;;615.20;2432.00;;;;;;5031809;28;20030;-67
2023/08/28 05:12:15;;;;;;;17.70;11.98;;;615.10;2432.00;;;;;;5031508;28;20026;-66
2023/08/28 05:14:41;;;;;;;13.30;11.90;;;615.00;2432.00;;;;;;5031014;28;20156;-67
2023/08/28 05:17:06;;;;;;;19.08;12.20;;;615.20;2432.00;;;;;;5031143;28;20029;-63
2023/08/28 05:19:32;;;;;;;14.18;11.93;;;640.20;2432.00;;;;;;5031474;28;20021;-63
2023/08/28 05:21:58;;;;;;;13.05;10.68;;;;;;;;;;5031554;28;20029;-67
2023/08/28 05:24:24;;;;;;;19.67;11.02;;;;;;;;;;5017518;28;20029;-66
2023/08/28 05:26:50;;;;;;;19.05;11.60;;;;;;;;;;5031541;28;20376;-68
2023/08/28 05:29:16;;;;;;;14.57;13.02;;;768.80;2227.20;;;;;;5031150;28;20502;-67
2023/08/28 05:31:41;;;;;;;18.80;12.18;;;794.10;2124.80;;;;;;5031350;28;20018;-69
2023/08/28 05:34:08;;;;;;;21.88;12.63;;;794.50;2150.40;;;;;;5030709;28;20014;-68
2023/08/28 05:36:34;;;;;;;13.18;11.80;;;;;;;;;;5028122;28;20051;-70
2023/08/28 05:39:00;;;;;;;18.23;12.35;;;844.90;2048.00;;;;;;5019710;28;20021;-67
2023/08/28 05:41:26;;;;;;;17.48;13.13;;;871.10;1894.40;;;;;;5030838;28;20383;-68
2023/08/28 05:43:52;;;;;;;15.27;12.25;;;;;;;;;;5030691;28;20060;-69
2023/08/28 05:46:18;;;;;;;15.20;13.02;;;;;;;;;;5027739;28;20030;-70
2023/08/28 05:48:44;;;;;;;14.15;12.77;;;;;;;;;;5010883;28;20022;-68
2023/08/28 05:51:09;;;;;;;19.27;13.10;;;896.80;1766.40;;;;;;5025982;28;20021;-70
2023/08/28 05:53:35;;;;;;;14.45;12.98;;;947.20;1664.00;;;;;;5030947;28;20071;-70
2023/08/28 05:56:01;;;;;;;20.45;13.68;;;972.90;1587.20;;;;;;5031110;28;20104;-71
2023/08/28 05:58:26;;;;;;;17.40;13.95;;;973.20;1612.80;;;;;;5030979;28;20036;-70
2023/08/28 06:00:53;;;;;;;15.93;13.98;;;972.80;1587.20;;;;;;5030629;28;20579;-69
2023/08/28 06:03:18;;;;;;;16.98;13.48;;;998.70;1536.00;;;;;;5030626;28;20030;-71
2023/08/28 06:05:44;;;;;;;16.10;13.32;;;998.60;1510.40;;;;;;5023858;28;20075;-70
2023/08/28 06:08:10;;;;;;;16.75;13.25;;;1049.60;1459.20;;;;;;5030417;28;20492;-72
2023/08/28 06:10:40;;;;;;;17.20;14.75;;;1024.90;1408.00;;;;;;5030532;28;20075;-71
2023/08/28 06:13:06;;;;;;;21.50;14.85;;;1050.40;1356.80;;;;;;5029663;28;20119;-69
2023/08/28 06:15:32;;;;;;;15.93;14.25;;;1050.40;1408.00;;;;;;5030486;28;20018;-71
2023/08/28 06:17:58;;;;;;;21.50;14.93;;;1049.90;1382.40;;;;;;5030497;28;20487;-73
2023/08/28 06:20:23;;;;;;;18.45;16.50;;;1075.80;1305.60;;;;;;5030034;28;20063;-73
2023/08/28 06:22:49;;;;;;;19.38;15.25;;;1050.00;1382.40;;;;;;5030216;28;20034;-74
2023/08/28 06:25:15;;;;;;;18.13;16.17;;;1075.60;1305.60;;;;;;5030090;28;20026;-73
2023/08/28 06:27:40;;;;;;;20.38;15.15;;;1075.40;1305.60;;;;;;5029496;28;20541;-74
2023/08/28 06:30:07;;;;;;;23.70;16.10;;;1075.60;1305.60;;;;;;5030117;28;20029;-73
2023/08/28 06:32:33;;;;;;;18.15;16.23;;;1050.30;1331.20;;;;;;5028937;28;20040;-73
2023/08/28 06:35:02;;;;;;;25.42;17.80;;;;;;;;;;5030220;28;20021;-74
2023/08/28 06:37:28;;;;;;;20.35;16.05;;;;;;;;;;5029971;28;20030;-73
2023/08/28 06:39:54;;;;;;;24.95;16.90;;;;;;;;;;5030054;28;20109;-71
2023/08/28 06:42:21;;;;;;;18.67;16.27;;;;;;;;;;5029460;28;20084;-74
2023/08/28 06:44:47;;;;;;;25.38;15.77;;;;;;;;;;5028546;28;20025;-72
2023/08/28 06:47:13;;;;;;;30.08;17.85;;;;;;;;;;5025439;28;20059;-73
2023/08/28 06:49:39;;;;;;;25.77;18.27;;;;;;;;;;5028530;28;20422;-72
2023/08/28 06:52:05;;;;;;;29.17;21.05;;;;;;;;;;5027334;28;20021;-71
2023/08/28 06:54:32;;;;;;;26.45;17.90;;;;;;;;;;5028059;28;20053;-72
2023/08/28 06:56:58;;;;;;;27.25;18.02;;;;;;;;;;5027264;28;20036;-74
2023/08/28 06:59:24;;;;;;;28.67;18.75;;;;;;;;;;5027005;28;20103;-73
2023/08/28 07:01:51;;;;;;;34.67;20.50;;;;;;;;;;5027126;28;20088;-75
2023/08/28 07:04:17;;;;;;;34.17;21.35;;;;;;;;;;5027214;28;20091;-73
2023/08/28 07:06:43;;;;;;;29.45;21.00;;;;;;;;;;5027555;28;20021;-75
2023/08/28 07:09:09;;;;;;;32.05;22.27;;;;;;;;;;5027416;28;20364;-74
2023/08/28 07:11:35;;;;;;;40.78;23.27;;;;;;;;;;5026846;28;20022;-74
2023/08/28 07:14:02;;;;;;;36.35;22.15;;;;;;;;;;5027504;28;20124;-74
2023/08/28 07:16:28;;;;;;;33.83;21.85;;;1076.10;1305.60;;;;;;5025351;28;20527;-74
2023/08/28 07:18:54;;;;;;;31.63;22.88;;;1075.60;1305.60;;;;;;5026213;28;20041;-73
2023/08/28 07:21:19;;;;;;;37.95;21.50;;;1075.30;1331.20;;;;;;5026682;28;20021;-71
2023/08/28 07:23:45;;;;;;;31.58;21.98;;;1075.50;1331.20;;;;;;5027200;28;20575;-74
2023/08/28 07:26:11;;;;;;;36.78;23.10;;;;;;;;;;5026872;28;20531;-75
2023/08/28 07:28:37;;;;;;;34.45;23.38;;;;;;;;;;5027015;28;20017;-75
2023/08/28 07:31:03;;;;;;;34.35;21.25;;;;;;;;;;5025517;28;20112;-73
2023/08/28 07:33:30;;;;;;;26.58;20.67;;;;;;;;;;5026909;28;20451;-69
2023/08/28 07:35:55;;;;;;;36.92;22.60;;;1076.10;1305.60;;;;;;5026925;28;20375;-72
2023/08/28 07:38:21;;;;;;;33.15;19.92;;;1076.10;1305.60;;;;;;5021995;28;20037;-70
2023/08/28 07:40:47;;;;;;;29.27;21.73;;;;;;;;;;5026808;28;20018;-73
2023/08/28 07:43:14;;;;;;;33.33;22.10;;;1101.40;1280.00;;;;;;5026746;28;20049;-67
2023/08/28 07:45:39;;;;;;;28.27;20.65;;;1152.40;1228.80;;;;;;5026948;28;20036;-72
2023/08/28 07:48:06;;;;;;;32.33;22.50;;;1152.10;1228.80;;;;;;5027071;28;20030;-71
2023/08/28 07:50:31;;;;;;;33.90;23.77;;;1126.60;1280.00;;;;;;5028062;28;20101;-75
2023/08/28 07:52:58;;;;;;;30.05;23.40;;;1126.50;1305.60;;;;;;5027953;28;20156;-74
2023/08/28 07:55:24;;;;;;;30.33;25.00;;;1126.80;1280.00;;;;;;5028745;28;20021;-67
2023/08/28 07:57:50;;;;;;;28.50;22.75;;;1127.30;1254.40;;;;;;5029214;28;20075;-75
2023/08/28 08:00:18;;;;;;;31.42;21.30;;;1126.70;1280.00;;;;;;5028351;28;20485;-74
2023/08/28 08:02:44;;;;;;;29.50;22.27;;;1152.00;1254.40;;;;;;5028893;28;20045;-72
2023/08/28 08:05:10;;;;;;;20.83;19.13;;;1126.60;1305.60;;;;;;5028680;28;20101;-66
2023/08/28 08:07:39;;;;;;;29.85;21.08;;;1152.50;1152.00;;;;;;5028521;28;20451;-73
2023/08/28 08:10:10;;;;;;;24.75;21.52;;;1126.90;1280.00;;;;;;5028312;28;20451;-68
2023/08/28 08:12:36;;;;;;;25.25;19.98;;;1127.00;1280.00;;;;;;5028392;28;20073;-74
2023/08/28 08:15:03;;;;;;;22.33;19.95;;;1127.00;1280.00;;;;;;5028558;28;20895;-67
2023/08/28 08:17:29;;;;;;;21.52;19.25;;;1152.70;1254.40;;;;;;5028534;28;20022;-67
2023/08/28 08:19:54;;;;;;;20.92;18.80;;;1152.60;1228.80;;;;;;5028256;28;20026;-75
2023/08/28 08:22:20;;;;;;;22.83;19.70;;;;;;;;;;5028469;28;20048;-67
2023/08/28 08:24:47;;;;;;;21.48;19.67;;;;;;;;;;5028343;28;20029;-67
2023/08/28 08:27:13;;;;;;;22.50;20.40;;;;;;;;;;5028625;28;20102;-75
2023/08/28 08:29:39;;;;;;;23.77;21.05;;;;;;;;;;5029034;28;20049;-71
2023/08/28 08:32:05;;;;;;;25.08;20.02;;;;;;;;;;5028526;28;20076;-68
2023/08/28 08:34:32;;;;;;;22.15;20.33;;;1203.90;1152.00;;;;;;5028522;28;20013;-75
2023/08/28 08:36:58;;;;;;;23.83;21.25;;;1203.80;1152.00;;;;;;5028374;28;20021;-72
2023/08/28 08:39:24;;;;;;;27.67;20.20;;;1203.40;1177.60;;;;;;5028149;28;20021;-68
2023/08/28 08:41:50;;;;;;;23.25;20.83;;;1203.80;1152.00;;;;;;5028522;28;20032;-67
2023/08/28 08:44:15;;;;;;;28.23;20.38;;;1178.30;1126.40;;;;;;5028079;28;20203;-74
2023/08/28 08:46:44;;;;;;;24.50;17.85;;;1127.30;1152.00;;;;;;5028535;28;20021;-68
2023/08/28 08:49:15;;;;;;;25.42;16.45;;;1075.90;1228.80;;;;;;5028387;28;20032;-68
2023/08/28 08:51:45;;;;;;;21.13;15.90;;;1075.30;1203.20;;;;;;5031290;28;20349;-67
2023/08/28 08:54:26;;;;;;;29.20;15.63;;;1050.20;1228.80;;;;;;5032296;28;20033;-68
2023/08/28 08:57:00;;;;;;;21.08;15.70;;;1050.20;1228.80;;;;;;5031863;28;20022;-72
2023/08/28 08:59:26;;;;;;;24.23;14.50;;;1024.70;1228.80;;;;;;5031817;28;20032;-73
2023/08/28 09:01:54;;;;;;;23.17;15.35;;;1024.60;1254.40;;;;;;5031786;28;20022;-72
2023/08/28 09:04:21;;;;;;;23.75;13.80;;;1024.50;1254.40;;;;;;5031524;28;20029;-70
2023/08/28 09:06:48;;;;;;;18.77;13.90;;;1024.50;1228.80;;;;;;5031589;28;20075;-67
2023/08/28 09:09:15;;;;;;;16.95;15.15;;;1024.20;1254.40;;;;;;5031689;28;20073;-73
2023/08/28 09:11:45;;;;;;;16.98;12.63;;;999.30;1254.40;;;;;;5031525;28;20025;-74
2023/08/28 09:14:11;;;;;;;22.38;14.38;;;;;;;;;;5031719;28;20029;-73
2023/08/28 09:16:37;;;;;;;22.08;14.15;;;;;;;;;;5030945;28;20032;-73
2023/08/28 09:19:03;;;;;;;17.40;14.43;;;;;;;;;;5031268;28;20021;-73
2023/08/28 09:21:36;;;;;;;23.23;13.48;;;;;;;;;;5031517;28;20023;-73
2023/08/28 09:24:02;;;;;;;21.38;13.55;;;;;;;;;;5031381;28;20551;-72
2023/08/28 09:26:28;;;;;;;27.92;14.20;;;;;;;;;;5031409;28;20030;-73
2023/08/28 09:29:00;;;;;;;23.25;15.02;;;;;;;;;;5031538;28;20133;-69
2023/08/28 09:31:30;;;;;;;20.10;15.20;;;;;;;;;;5031325;28;20056;-73
2023/08/28 09:33:56;;;;;;;17.95;12.73;;;;;;;;;;5030800;28;20033;-72
2023/08/28 09:36:22;;;;;;;18.23;13.38;;;;;;;;;;5031110;28;20030;-73
2023/08/28 09:38:49;;;;;;;18.30;12.95;;;;;;;;;;5030915;28;20032;-67
2023/08/28 09:41:15;;;;;;;21.05;14.35;;;;;;;;;;5030861;28;20049;-72
2023/08/28 09:43:42;;;;;;;18.52;14.65;;;;;;;;;;5030497;28;20396;-74
2023/08/28 09:46:08;;;;;;;20.40;14.25;;;;;;;;;;5030575;28;20396;-74
2023/08/28 09:48:35;;;;;;;16.38;13.63;;;;;;;;;;5030525;28;20025;-69
2023/08/28 09:51:06;;;;;;;19.95;14.23;;;;;;;;;;5030940;28;20022;-73
2023/08/28 09:53:32;;;;;;;18.83;13.35;;;;;;;;;;5029275;28;20029;-73
2023/08/28 09:55:58;;;;;;;18.75;13.50;;;;;;;;;;5030706;28;20021;-73
2023/08/28 09:58:28;;;;;;;15.10;13.45;;;;;;;;;;5030226;28;20025;-73
2023/08/28 10:00:55;;;;;;;20.63;14.48;;;;;;;;;;5030112;28;20030;-72
2023/08/28 10:03:23;;;;;;;19.50;13.27;;;;;;;;;;5030143;28;20044;-75
2023/08/28 10:05:51;;;;;;;21.90;14.30;;;;;;;;;;5030930;28;20018;-71
2023/08/28 10:08:17;;;;;;;21.48;15.20;;;;;;;;;;5030227;28;20022;-71
2023/08/28 10:10:47;;;;;;;21.85;13.38;;;;;;;;;;5030622;28;20025;-69
2023/08/28 10:13:15;;;;;;;25.85;14.30;;;;;;;;;;5026416;28;20084;-74
2023/08/28 10:15:45;;;;;;;20.77;14.55;;;;;;;;;;5020750;28;20017;-68
2023/08/28 10:18:15;;;;;;;25.38;14.88;;;;;;;;;;5030435;28;20364;-66
2023/08/28 10:20:42;;;;;;;18.63;14.35;;;;;;;;;;5030395;28;20029;-74
2023/08/28 10:23:10;;;;;;;19.85;13.85;;;;;;;;;;5027513;28;20487;-73
2023/08/28 10:25:36;;;;;;;21.48;13.38;;;;;;;;;;5028565;28;20559;-73
2023/08/28 10:28:03;;;;;;;20.67;15.30;;;;;;;;;;5028701;28;20025;-71
2023/08/28 10:30:30;;;;;;;17.23;13.20;;;;;;;;;;5028187;28;20087;-72
2023/08/28 10:32:58;;;;;;;17.95;13.68;;;973.20;1305.60;;;;;;5028398;28;20030;-67
2023/08/28 10:35:24;;;;;;;18.13;13.93;;;;;;;;;;5028064;28;20475;-71
2023/08/28 10:37:51;;;;;;;20.42;13.60;;;;;;;;;;5028416;28;20029;-72
2023/08/28 10:40:18;;;;;;;16.73;13.77;;;;;;;;;;5028360;28;20052;-68
2023/08/28 10:42:44;;;;;;;20.15;14.18;;;;;;;;;;5027846;28;20053;-72
2023/08/28 10:45:11;;;;;;;23.52;13.85;;;;;;;;;;5027984;28;20029;-70
2023/08/28 10:47:37;;;;;;;23.70;14.77;;;;;;;;;;5027776;28;20029;-72
2023/08/28 10:50:05;;;;;;;14.45;12.25;;;;;;;;;;5027847;28;20060;-73
2023/08/28 10:52:31;;;;;;;15.93;12.43;;;;;;;;;;5021706;28;20471;-71
2023/08/28 10:55:03;;;;;;;20.80;12.13;;;;;;;;;;5021459;28;20037;-74
2023/08/28 10:57:29;;;;;;;15.63;12.63;;;;;;;;;;5027980;28;20047;-74
2023/08/28 10:59:59;;;;;;;15.90;12.63;;;;;;;;;;5027520;28;20061;-70
2023/08/28 11:02:25;;;;;;;16.30;13.48;;;;;;;;;;5027045;28;20109;-71
2023/08/28 11:04:51;;;;;;;18.42;11.95;;;;;;;;;;5027980;28;20107;-74
2023/08/28 11:07:23;;;;;;;20.13;12.88;;;;;;;;;;5027903;28;20024;-73
2023/08/28 11:09:50;;;;;;;18.02;12.50;;;;;;;;;;5027698;28;20029;-71
2023/08/28 11:12:19;;;;;;;22.30;12.80;;;;;;;;;;5027579;28;20033;-73
2023/08/28 11:14:54;;;;;;;14.48;12.15;;;;;;;;;;5027173;28;20037;-73
2023/08/28 11:17:21;;;;;;;14.90;12.05;;;;;;;;;;5027826;28;20025;-73
2023/08/28 11:19:56;;;;;;;18.38;12.82;;;;;;;;;;5027286;28;20468;-74
2023/08/28 11:22:33;;;;;;;21.95;13.27;;;;;;;;;;5027740;28;20029;-69
2023/08/28 11:24:59;;;;;;;17.45;11.93;;;;;;;;;;5015194;28;20467;-72
2023/08/28 11:27:34;;;;;;;17.90;10.88;;;;;;;;;;5026819;28;20411;-67
2023/08/28 11:30:07;;;;;;;18.23;11.55;;;;;;;;;;5019126;28;20022;-72
2023/08/28 11:32:34;;;;;;;17.13;11.85;;;;;;;;;;5023868;28;20475;-66
2023/08/28 11:35:08;;;;;;;14.93;11.95;;;;;;;;;;5027395;28;20765;-71
2023/08/28 11:37:42;;;;;;;20.45;11.13;;;;;;;;;;5027597;28;20528;-69
2023/08/28 11:40:09;;;;;;;15.70;11.90;;;;;;;;;;5027689;28;20049;-69
2023/08/28 11:42:36;;;;;;;17.98;12.18;;;;;;;;;;5026739;28;20068;-67
2023/08/28 11:45:04;;;;;;;18.38;12.82;;;;;;;;;;5027890;28;20084;-71
2023/08/28 11:47:30;;;;;;;17.52;11.88;;;;;;;;;;5027135;28;20033;-73
2023/08/28 11:49:57;;;;;;;12.73;11.13;;;;;;;;;;5027760;28;20179;-68
2023/08/28 11:52:24;;;;;;;29.17;17.10;;;;;;;;;;5027115;28;20053;-75
2023/08/28 11:54:50;;;;;;;15.90;11.25;;;;;;;;;;5027040;28;20105;-68
2023/08/28 11:57:21;;;;;;;15.48;11.32;;;;;;;;;;5027261;28;20022;-67
2023/08/28 11:59:48;;;;;;;19.75;11.90;;;;;;;;;;5027005;28;20068;-70
2023/08/28 12:02:15;;;;;;;16.60;12.52;;;;;;;;;;5027071;28;20022;-66
2023/08/28 12:04:41;;;;;;;19.48;13.32;;;;;;;;;;5026841;28;20623;-73
2023/08/28 12:07:17;;;;;;;26.08;17.73;;;;;;;;;;5026663;28;20068;-67
2023/08/28 12:09:43;;;;;;;22.08;16.65;;;;;;;;;;5026878;28;20026;-68
2023/08/28 12:12:09;;;;;;;14.63;12.85;;;;;;;;;;5019026;28;20754;-75
2023/08/28 12:14:35;;;;;;;18.42;12.63;;;;;;;;;;5008720;28;20076;-73
2023/08/28 12:17:01;;;;;;;17.60;12.10;;;;;;;;;;5027218;28;20034;-66
2023/08/28 12:19:28;;;;;;;15.65;13.52;;;;;;;;;;5025202;28;20029;-68
2023/08/28 12:22:05;;;;;;;15.55;13.30;;;;;;;;;;5015365;28;20033;-70
2023/08/28 12:24:31;;;;;;;16.30;11.70;;;;;;;;;;5026880;28;20045;-72
2023/08/28 12:26:57;;;;;;;14.00;11.88;;;;;;;;;;5031268;28;20063;-73
2023/08/28 12:29:26;;;;;;;15.00;11.38;;;;;;;;;;5030864;28;20034;-73
2023/08/28 12:31:52;;;;;;;13.68;11.45;;;;;;;;;;5027298;28;20041;-73
2023/08/28 12:34:19;;;;;;;13.45;11.52;;;;;;;;;;5020678;28;20379;-74
2023/08/28 12:36:46;;;;;;;18.60;12.63;;;;;;;;;;5030479;28;20026;-73
2023/08/28 12:39:16;;;;;;;14.73;11.75;;;;;;;;;;5030642;28;20570;-69
2023/08/28 12:41:52;;;;;;;13.52;11.63;;;;;;;;;;5030328;28;20024;-68
2023/08/28 12:44:19;;;;;;;19.83;11.98;;;;;;;;;;5028846;28;20145;-68
2023/08/28 12:46:45;;;;;;;15.35;11.15;;;;;;;;;;5029632;28;20535;-72